sensor_id;sensor_type;location;lat;lon;timestamp;pressure;altitude;pressure_sealevel;temperature;humidity
62458;BME280;48509;52.122;5.250;2023-06-10T00:00:41;101460.0;;;21.69;61.2
62458;BME280;48509;52.122;5.250;2023-06-10T00:02:17;101458.0;;;21.61;61.48
62458;BME280;48509;52.122;5.250;2023-06-10T00:05:30;101458.0;;;21.72;60.98
62458;BME280;48509;52.122;5.250;2023-06-10T00:07:06;101455.0;;;21.71;61.11
62458;BME280;48509;52.122;5.250;2023-06-10T00:08:42;101457.0;;;21.65;60.82
62458;BME280;48509;52.122;5.250;2023-06-10T00:11:55;101466.0;;;21.45;62.04
62458;BME280;48509;52.122;5.250;2023-06-10T00:13:31;101459.0;;;21.43;61.07
62458;BME280;48509;52.122;5.250;2023-06-10T00:15:08;101465.0;;;21.52;61.34
62458;BME280;48509;52.122;5.250;2023-06-10T00:18:21;101465.0;;;21.41;61.68
62458;BME280;48509;52.122;5.250;2023-06-10T00:19:57;101464.0;;;21.4;62.23
62458;BME280;48509;52.122;5.250;2023-06-10T00:21:34;101464.0;;;21.4;62.31
62458;BME280;48509;52.122;5.250;2023-06-10T00:23:10;101466.0;;;21.38;62.15
62458;BME280;48509;52.122;5.250;2023-06-10T00:26:23;101471.0;;;21.24;62.91
62458;BME280;48509;52.122;5.250;2023-06-10T00:27:59;101471.0;;;21.24;62.48
62458;BME280;48509;52.122;5.250;2023-06-10T00:29:35;101470.0;;;21.15;62.83
62458;BME280;48509;52.122;5.250;2023-06-10T00:32:47;101469.0;;;21.15;62.82
62458;BME280;48509;52.122;5.250;2023-06-10T00:34:23;101468.0;;;21.23;61.74
62458;BME280;48509;52.122;5.250;2023-06-10T00:35:59;101474.0;;;21.17;61.35
62458;BME280;48509;52.122;5.250;2023-06-10T00:39:12;101471.0;;;21.11;62.21
62458;BME280;48509;52.122;5.250;2023-06-10T00:40:48;101470.0;;;21.04;62.25
62458;BME280;48509;52.122;5.250;2023-06-10T00:42:24;101469.0;;;21.06;62.15
62458;BME280;48509;52.122;5.250;2023-06-10T00:45:37;101469.0;;;20.99;62.03
62458;BME280;48509;52.122;5.250;2023-06-10T00:47:13;101470.0;;;20.92;62.64
62458;BME280;48509;52.122;5.250;2023-06-10T00:48:50;101467.0;;;20.85;63.01
62458;BME280;48509;52.122;5.250;2023-06-10T00:50:26;101471.0;;;20.79;63.04
62458;BME280;48509;52.122;5.250;2023-06-10T00:53:40;101470.0;;;20.78;63.45
62458;BME280;48509;52.122;5.250;2023-06-10T00:55:17;101470.0;;;20.73;63.79
62458;BME280;48509;52.122;5.250;2023-06-10T00:56:53;101470.0;;;20.71;64.1
62458;BME280;48509;52.122;5.250;2023-06-10T01:00:07;101473.0;;;20.71;64.13
62458;BME280;48509;52.122;5.250;2023-06-10T01:01:44;101472.0;;;20.72;64.24
62458;BME280;48509;52.122;5.250;2023-06-10T01:03:22;101472.0;;;20.73;63.75
62458;BME280;48509;52.122;5.250;2023-06-10T01:06:41;101473.0;;;20.76;62.97
62458;BME280;48509;52.122;5.250;2023-06-10T01:08:28;101471.0;;;20.72;63.29
62458;BME280;48509;52.122;5.250;2023-06-10T01:10:11;101475.0;;;20.59;63.33
62458;BME280;48509;52.122;5.250;2023-06-10T01:12:05;101471.0;;;20.61;62.84
62458;BME280;48509;52.122;5.250;2023-06-10T01:13:43;101472.0;;;20.54;62.48
62458;BME280;48509;52.122;5.250;2023-06-10T01:16:58;101477.0;;;20.61;62.62
62458;BME280;48509;52.122;5.250;2023-06-10T01:18:36;101480.0;;;20.53;62.0
62458;BME280;48509;52.122;5.250;2023-06-10T01:20:12;101476.0;;;20.53;61.41
62458;BME280;48509;52.122;5.250;2023-06-10T01:21:48;101482.0;;;20.52;61.62
62458;BME280;48509;52.122;5.250;2023-06-10T01:25:01;101482.0;;;20.49;60.61
62458;BME280;48509;52.122;5.250;2023-06-10T01:26:37;101482.0;;;20.54;61.64
62458;BME280;48509;52.122;5.250;2023-06-10T01:28:16;101485.0;;;20.48;62.76
62458;BME280;48509;52.122;5.250;2023-06-10T01:31:49;101482.0;;;20.47;62.95
62458;BME280;48509;52.122;5.250;2023-06-10T01:33:29;101482.0;;;20.59;61.21
62458;BME280;48509;52.122;5.250;2023-06-10T01:36:47;101483.0;;;20.64;58.76
62458;BME280;48509;52.122;5.250;2023-06-10T01:40:04;101481.0;;;20.55;61.05
62458;BME280;48509;52.122;5.250;2023-06-10T01:41:43;101480.0;;;20.51;60.76
62458;BME280;48509;52.122;5.250;2023-06-10T01:43:19;101483.0;;;20.55;59.92
62458;BME280;48509;52.122;5.250;2023-06-10T01:44:56;101482.0;;;20.73;58.57
62458;BME280;48509;52.122;5.250;2023-06-10T01:48:09;101483.0;;;20.6;59.46
62458;BME280;48509;52.122;5.250;2023-06-10T01:49:45;101481.0;;;20.61;60.08
62458;BME280;48509;52.122;5.250;2023-06-10T01:54:35;101481.0;;;20.6;58.4
62458;BME280;48509;52.122;5.250;2023-06-10T01:56:11;101480.0;;;20.49;60.9
62458;BME280;48509;52.122;5.250;2023-06-10T01:57:47;101480.0;;;20.48;60.05
62458;BME280;48509;52.122;5.250;2023-06-10T01:59:23;101483.0;;;20.61;60.53
62458;BME280;48509;52.122;5.250;2023-06-10T02:02:35;101484.0;;;20.59;60.91
62458;BME280;48509;52.122;5.250;2023-06-10T02:04:12;101485.0;;;20.51;61.76
62458;BME280;48509;52.122;5.250;2023-06-10T02:05:48;101487.0;;;20.45;61.48
62458;BME280;48509;52.122;5.250;2023-06-10T02:09:00;101486.0;;;20.49;59.96
62458;BME280;48509;52.122;5.250;2023-06-10T02:12:12;101480.0;;;20.43;60.27
62458;BME280;48509;52.122;5.250;2023-06-10T02:15:25;101482.0;;;20.38;59.54
62458;BME280;48509;52.122;5.250;2023-06-10T02:17:01;101485.0;;;20.37;59.46
62458;BME280;48509;52.122;5.250;2023-06-10T02:18:37;101483.0;;;20.36;59.55
62458;BME280;48509;52.122;5.250;2023-06-10T02:21:49;101485.0;;;20.41;58.18
62458;BME280;48509;52.122;5.250;2023-06-10T02:23:26;101491.0;;;20.43;58.25
62458;BME280;48509;52.122;5.250;2023-06-10T02:25:02;101491.0;;;20.49;58.35
62458;BME280;48509;52.122;5.250;2023-06-10T02:26:39;101489.0;;;20.41;59.11
62458;BME280;48509;52.122;5.250;2023-06-10T02:29:52;101492.0;;;20.32;58.51
62458;BME280;48509;52.122;5.250;2023-06-10T02:31:29;101494.0;;;20.29;59.83
62458;BME280;48509;52.122;5.250;2023-06-10T02:33:05;101501.0;;;20.2;60.89
62458;BME280;48509;52.122;5.250;2023-06-10T02:36:17;101500.0;;;20.16;60.17
62458;BME280;48509;52.122;5.250;2023-06-10T02:37:53;101502.0;;;20.11;61.23
62458;BME280;48509;52.122;5.250;2023-06-10T02:39:29;101505.0;;;20.09;60.68
62458;BME280;48509;52.122;5.250;2023-06-10T02:42:42;101501.0;;;20.02;60.97
62458;BME280;48509;52.122;5.250;2023-06-10T02:44:18;101501.0;;;20.11;60.14
62458;BME280;48509;52.122;5.250;2023-06-10T02:45:54;101503.0;;;20.16;59.99
62458;BME280;48509;52.122;5.250;2023-06-10T02:47:30;101501.0;;;20.11;60.51
62458;BME280;48509;52.122;5.250;2023-06-10T02:50:42;101499.0;;;20.11;60.63
62458;BME280;48509;52.122;5.250;2023-06-10T02:52:19;101500.0;;;20.16;60.23
62458;BME280;48509;52.122;5.250;2023-06-10T02:53:56;101502.0;;;20.13;60.16
62458;BME280;48509;52.122;5.250;2023-06-10T02:57:08;101497.0;;;20.09;60.53
62458;BME280;48509;52.122;5.250;2023-06-10T02:58:44;101499.0;;;20.18;59.61
62458;BME280;48509;52.122;5.250;2023-06-10T03:00:20;101490.0;;;20.25;59.32
62458;BME280;48509;52.122;5.250;2023-06-10T03:03:33;101493.0;;;20.27;59.55
62458;BME280;48509;52.122;5.250;2023-06-10T03:05:09;101492.0;;;20.2;59.99
62458;BME280;48509;52.122;5.250;2023-06-10T03:06:45;101499.0;;;20.2;59.67
62458;BME280;48509;52.122;5.250;2023-06-10T03:09:57;101499.0;;;20.11;60.3
62458;BME280;48509;52.122;5.250;2023-06-10T03:11:34;101498.0;;;20.04;60.91
62458;BME280;48509;52.122;5.250;2023-06-10T03:13:10;101498.0;;;20.09;60.65
62458;BME280;48509;52.122;5.250;2023-06-10T03:14:46;101499.0;;;20.11;60.64
62458;BME280;48509;52.122;5.250;2023-06-10T03:17:58;101502.0;;;20.2;59.82
62458;BME280;48509;52.122;5.250;2023-06-10T03:19:35;101500.0;;;20.23;59.97
62458;BME280;48509;52.122;5.250;2023-06-10T03:21:11;101500.0;;;20.25;60.18
62458;BME280;48509;52.122;5.250;2023-06-10T03:24:23;101498.0;;;20.34;59.64
62458;BME280;48509;52.122;5.250;2023-06-10T03:25:59;101505.0;;;20.32;59.6
62458;BME280;48509;52.122;5.250;2023-06-10T03:27:35;101501.0;;;20.27;60.13
62458;BME280;48509;52.122;5.250;2023-06-10T03:30:48;101505.0;;;20.34;60.01
62458;BME280;48509;52.122;5.250;2023-06-10T03:32:24;101499.0;;;20.36;59.73
62458;BME280;48509;52.122;5.250;2023-06-10T03:34:00;101500.0;;;20.41;59.62
62458;BME280;48509;52.122;5.250;2023-06-10T03:35:36;101500.0;;;20.37;59.99
62458;BME280;48509;52.122;5.250;2023-06-10T03:38:48;101503.0;;;20.39;59.49
62458;BME280;48509;52.122;5.250;2023-06-10T03:40:25;101505.0;;;20.41;59.62
62458;BME280;48509;52.122;5.250;2023-06-10T03:42:01;101505.0;;;20.38;60.52
62458;BME280;48509;52.122;5.250;2023-06-10T03:45:13;101509.0;;;20.27;60.72
62458;BME280;48509;52.122;5.250;2023-06-10T03:46:49;101509.0;;;20.14;61.87
62458;BME280;48509;52.122;5.250;2023-06-10T03:48:25;101513.0;;;20.25;61.17
62458;BME280;48509;52.122;5.250;2023-06-10T03:51:38;101514.0;;;20.3;60.6
62458;BME280;48509;52.122;5.250;2023-06-10T03:53:14;101512.0;;;20.32;60.54
62458;BME280;48509;52.122;5.250;2023-06-10T03:54:50;101513.0;;;20.27;60.37
62458;BME280;48509;52.122;5.250;2023-06-10T03:58:03;101515.0;;;20.34;60.7
62458;BME280;48509;52.122;5.250;2023-06-10T03:59:39;101515.0;;;20.36;60.29
62458;BME280;48509;52.122;5.250;2023-06-10T04:01:15;101514.0;;;20.36;60.71
62458;BME280;48509;52.122;5.250;2023-06-10T04:02:51;101518.0;;;20.32;61.57
62458;BME280;48509;52.122;5.250;2023-06-10T04:06:04;101518.0;;;20.32;61.19
62458;BME280;48509;52.122;5.250;2023-06-10T04:07:40;101521.0;;;20.3;61.93
62458;BME280;48509;52.122;5.250;2023-06-10T04:09:16;101515.0;;;20.36;60.93
62458;BME280;48509;52.122;5.250;2023-06-10T04:12:28;101521.0;;;20.39;60.78
62458;BME280;48509;52.122;5.250;2023-06-10T04:14:04;101523.0;;;20.3;61.89
62458;BME280;48509;52.122;5.250;2023-06-10T04:15:40;101524.0;;;20.22;62.34
62458;BME280;48509;52.122;5.250;2023-06-10T04:18:53;101519.0;;;20.37;61.51
62458;BME280;48509;52.122;5.250;2023-06-10T04:20:29;101523.0;;;20.43;61.33
62458;BME280;48509;52.122;5.250;2023-06-10T04:22:05;101526.0;;;20.34;62.55
62458;BME280;48509;52.122;5.250;2023-06-10T04:25:18;101530.0;;;20.18;62.95
62458;BME280;48509;52.122;5.250;2023-06-10T04:26:54;101530.0;;;20.3;62.39
62458;BME280;48509;52.122;5.250;2023-06-10T04:28:30;101531.0;;;20.25;62.92
62458;BME280;48509;52.122;5.250;2023-06-10T04:30:07;101533.0;;;20.32;62.58
62458;BME280;48509;52.122;5.250;2023-06-10T04:33:18;101531.0;;;20.32;63.15
62458;BME280;48509;52.122;5.250;2023-06-10T04:34:55;101538.0;;;20.34;62.24
62458;BME280;48509;52.122;5.250;2023-06-10T04:36:31;101539.0;;;20.32;62.15
62458;BME280;48509;52.122;5.250;2023-06-10T04:39:43;101538.0;;;20.37;62.27
62458;BME280;48509;52.122;5.250;2023-06-10T04:41:19;101540.0;;;20.28;64.39
62458;BME280;48509;52.122;5.250;2023-06-10T04:42:55;101542.0;;;20.34;63.3
62458;BME280;48509;52.122;5.250;2023-06-10T04:46:08;101544.0;;;20.37;63.16
62458;BME280;48509;52.122;5.250;2023-06-10T04:47:44;101546.0;;;20.45;63.38
62458;BME280;48509;52.122;5.250;2023-06-10T04:49:20;101544.0;;;20.52;62.55
62458;BME280;48509;52.122;5.250;2023-06-10T04:50:57;101550.0;;;20.52;62.61
62458;BME280;48509;52.122;5.250;2023-06-10T04:54:11;101550.0;;;20.6;62.43
62458;BME280;48509;52.122;5.250;2023-06-10T04:55:47;101547.0;;;20.56;62.77
62458;BME280;48509;52.122;5.250;2023-06-10T04:57:23;101548.0;;;20.61;62.99
62458;BME280;48509;52.122;5.250;2023-06-10T05:00:35;101549.0;;;20.39;62.93
62458;BME280;48509;52.122;5.250;2023-06-10T05:02:11;101547.0;;;20.58;63.22
62458;BME280;48509;52.122;5.250;2023-06-10T05:03:48;101549.0;;;20.67;62.58
62458;BME280;48509;52.122;5.250;2023-06-10T05:07:00;101548.0;;;20.69;62.91
62458;BME280;48509;52.122;5.250;2023-06-10T05:08:36;101545.0;;;20.71;62.5
62458;BME280;48509;52.122;5.250;2023-06-10T05:10:12;101549.0;;;20.83;62.35
62458;BME280;48509;52.122;5.250;2023-06-10T05:13:25;101549.0;;;20.83;62.47
62458;BME280;48509;52.122;5.250;2023-06-10T05:15:01;101548.0;;;20.88;62.51
62458;BME280;48509;52.122;5.250;2023-06-10T05:16:37;101545.0;;;20.86;62.26
62458;BME280;48509;52.122;5.250;2023-06-10T05:18:13;101549.0;;;20.94;62.37
62458;BME280;48509;52.122;5.250;2023-06-10T05:21:25;101549.0;;;20.87;63.63
62458;BME280;48509;52.122;5.250;2023-06-10T05:23:02;101546.0;;;21.0;62.71
62458;BME280;48509;52.122;5.250;2023-06-10T05:24:38;101551.0;;;21.03;62.45
62458;BME280;48509;52.122;5.250;2023-06-10T05:27:50;101545.0;;;21.0;63.09
62458;BME280;48509;52.122;5.250;2023-06-10T05:29:27;101553.0;;;21.05;62.74
62458;BME280;48509;52.122;5.250;2023-06-10T05:31:02;101551.0;;;20.96;62.39
62458;BME280;48509;52.122;5.250;2023-06-10T05:34:15;101549.0;;;20.98;63.18
62458;BME280;48509;52.122;5.250;2023-06-10T05:35:51;101552.0;;;21.07;61.97
62458;BME280;48509;52.122;5.250;2023-06-10T05:37:27;101552.0;;;21.12;63.06
62458;BME280;48509;52.122;5.250;2023-06-10T05:39:03;101555.0;;;21.21;62.77
62458;BME280;48509;52.122;5.250;2023-06-10T05:42:16;101550.0;;;21.23;63.5
62458;BME280;48509;52.122;5.250;2023-06-10T05:43:52;101552.0;;;21.22;62.98
62458;BME280;48509;52.122;5.250;2023-06-10T05:45:27;101555.0;;;21.15;62.61
62458;BME280;48509;52.122;5.250;2023-06-10T05:48:40;101556.0;;;21.22;62.76
62458;BME280;48509;52.122;5.250;2023-06-10T05:50:17;101560.0;;;21.3;62.42
62458;BME280;48509;52.122;5.250;2023-06-10T05:51:53;101556.0;;;21.39;61.8
62458;BME280;48509;52.122;5.250;2023-06-10T05:55:06;101560.0;;;21.43;62.48
62458;BME280;48509;52.122;5.250;2023-06-10T05:56:42;101559.0;;;21.42;62.96
62458;BME280;48509;52.122;5.250;2023-06-10T05:58:20;101560.0;;;21.51;61.97
62458;BME280;48509;52.122;5.250;2023-06-10T06:01:32;101559.0;;;21.52;61.3
62458;BME280;48509;52.122;5.250;2023-06-10T06:03:08;101561.0;;;21.67;61.01
62458;BME280;48509;52.122;5.250;2023-06-10T06:04:45;101563.0;;;21.69;61.73
62458;BME280;48509;52.122;5.250;2023-06-10T06:06:21;101560.0;;;21.6;62.96
62458;BME280;48509;52.122;5.250;2023-06-10T06:09:34;101565.0;;;21.71;62.36
62458;BME280;48509;52.122;5.250;2023-06-10T06:11:10;101564.0;;;21.87;61.78
62458;BME280;48509;52.122;5.250;2023-06-10T06:12:46;101568.0;;;21.93;62.22
62458;BME280;48509;52.122;5.250;2023-06-10T06:15:58;101562.0;;;21.84;60.73
62458;BME280;48509;52.122;5.250;2023-06-10T06:17:35;101566.0;;;21.88;59.89
62458;BME280;48509;52.122;5.250;2023-06-10T06:19:11;101558.0;;;21.97;60.14
62458;BME280;48509;52.122;5.250;2023-06-10T06:22:23;101557.0;;;22.03;60.47
62458;BME280;48509;52.122;5.250;2023-06-10T06:23:59;101560.0;;;22.09;60.89
62458;BME280;48509;52.122;5.250;2023-06-10T06:25:35;101553.0;;;22.13;59.12
62458;BME280;48509;52.122;5.250;2023-06-10T06:27:11;101555.0;;;22.21;60.13
62458;BME280;48509;52.122;5.250;2023-06-10T06:30:24;101556.0;;;22.28;59.24
62458;BME280;48509;52.122;5.250;2023-06-10T06:32:00;101557.0;;;22.25;60.65
62458;BME280;48509;52.122;5.250;2023-06-10T06:33:36;101555.0;;;22.41;59.94
62458;BME280;48509;52.122;5.250;2023-06-10T06:36:48;101555.0;;;22.43;58.91
62458;BME280;48509;52.122;5.250;2023-06-10T06:38:25;101556.0;;;22.5;59.92
62458;BME280;48509;52.122;5.250;2023-06-10T06:40:01;101561.0;;;22.63;59.06
62458;BME280;48509;52.122;5.250;2023-06-10T06:43:13;101560.0;;;22.58;59.34
62458;BME280;48509;52.122;5.250;2023-06-10T06:44:49;101562.0;;;22.61;57.18
62458;BME280;48509;52.122;5.250;2023-06-10T06:46:26;101559.0;;;22.68;57.83
62458;BME280;48509;52.122;5.250;2023-06-10T06:49:38;101557.0;;;22.69;57.96
62458;BME280;48509;52.122;5.250;2023-06-10T06:51:14;101558.0;;;22.78;57.68
62458;BME280;48509;52.122;5.250;2023-06-10T06:52:50;101552.0;;;22.93;57.31
62458;BME280;48509;52.122;5.250;2023-06-10T06:54:26;101555.0;;;22.93;56.57
62458;BME280;48509;52.122;5.250;2023-06-10T06:57:39;101556.0;;;23.06;56.85
62458;BME280;48509;52.122;5.250;2023-06-10T06:59:15;101558.0;;;23.09;56.59
62458;BME280;48509;52.122;5.250;2023-06-10T07:00:51;101558.0;;;23.17;55.75
62458;BME280;48509;52.122;5.250;2023-06-10T07:04:03;101555.0;;;23.16;56.29
62458;BME280;48509;52.122;5.250;2023-06-10T07:05:40;101557.0;;;23.24;56.17
62458;BME280;48509;52.122;5.250;2023-06-10T07:07:16;101558.0;;;23.27;55.12
62458;BME280;48509;52.122;5.250;2023-06-10T07:10:28;101562.0;;;23.23;56.32
62458;BME280;48509;52.122;5.250;2023-06-10T07:12:05;101558.0;;;23.37;54.7
62458;BME280;48509;52.122;5.250;2023-06-10T07:13:42;101556.0;;;23.48;55.23
62458;BME280;48509;52.122;5.250;2023-06-10T07:15:18;101566.0;;;23.52;54.88
62458;BME280;48509;52.122;5.250;2023-06-10T07:18:30;101557.0;;;23.58;54.25
62458;BME280;48509;52.122;5.250;2023-06-10T07:20:07;101559.0;;;23.73;54.04
62458;BME280;48509;52.122;5.250;2023-06-10T07:21:44;101560.0;;;23.84;54.96
62458;BME280;48509;52.122;5.250;2023-06-10T07:24:56;101566.0;;;23.87;54.43
62458;BME280;48509;52.122;5.250;2023-06-10T07:26:33;101569.0;;;23.98;54.08
62458;BME280;48509;52.122;5.250;2023-06-10T07:32:59;101571.0;;;23.91;52.4
62458;BME280;48509;52.122;5.250;2023-06-10T07:34:35;101569.0;;;24.05;52.69
62458;BME280;48509;52.122;5.250;2023-06-10T07:36:11;101570.0;;;24.13;54.95
62458;BME280;48509;52.122;5.250;2023-06-10T07:39:23;101570.0;;;23.98;53.16
62458;BME280;48509;52.122;5.250;2023-06-10T07:40:59;101567.0;;;24.1;52.7
62458;BME280;48509;52.122;5.250;2023-06-10T07:42:36;101565.0;;;24.3;52.26
62458;BME280;48509;52.122;5.250;2023-06-10T07:45:48;101570.0;;;24.33;51.88
62458;BME280;48509;52.122;5.250;2023-06-10T07:47:24;101576.0;;;24.36;51.4
62458;BME280;48509;52.122;5.250;2023-06-10T07:49:00;101572.0;;;24.56;51.96
62458;BME280;48509;52.122;5.250;2023-06-10T07:52:13;101574.0;;;24.58;51.45
62458;BME280;48509;52.122;5.250;2023-06-10T07:53:49;101574.0;;;24.5;52.83
62458;BME280;48509;52.122;5.250;2023-06-10T07:55:25;101577.0;;;24.5;51.1
62458;BME280;48509;52.122;5.250;2023-06-10T07:58:37;101576.0;;;24.69;50.55
62458;BME280;48509;52.122;5.250;2023-06-10T08:00:14;101576.0;;;24.63;50.14
62458;BME280;48509;52.122;5.250;2023-06-10T08:01:51;101581.0;;;24.76;51.63
62458;BME280;48509;52.122;5.250;2023-06-10T08:03:27;101580.0;;;24.96;50.62
62458;BME280;48509;52.122;5.250;2023-06-10T08:06:40;101582.0;;;24.94;50.96
62458;BME280;48509;52.122;5.250;2023-06-10T08:08:16;101583.0;;;25.04;50.35
62458;BME280;48509;52.122;5.250;2023-06-10T08:09:53;101575.0;;;25.16;49.97
62458;BME280;48509;52.122;5.250;2023-06-10T08:13:05;101580.0;;;25.25;49.25
62458;BME280;48509;52.122;5.250;2023-06-10T08:14:41;101573.0;;;25.25;48.09
62458;BME280;48509;52.122;5.250;2023-06-10T08:16:17;101577.0;;;25.32;48.78
62458;BME280;48509;52.122;5.250;2023-06-10T08:19:30;101571.0;;;25.42;48.8
62458;BME280;48509;52.122;5.250;2023-06-10T08:21:06;101571.0;;;25.41;48.8
62458;BME280;48509;52.122;5.250;2023-06-10T08:22:42;101569.0;;;25.49;48.53
62458;BME280;48509;52.122;5.250;2023-06-10T08:24:18;101571.0;;;25.61;48.08
62458;BME280;48509;52.122;5.250;2023-06-10T08:27:30;101570.0;;;25.74;47.83
62458;BME280;48509;52.122;5.250;2023-06-10T08:29:06;101571.0;;;25.72;48.55
62458;BME280;48509;52.122;5.250;2023-06-10T08:30:43;101572.0;;;25.79;48.0
62458;BME280;48509;52.122;5.250;2023-06-10T08:33:55;101574.0;;;25.8;47.83
62458;BME280;48509;52.122;5.250;2023-06-10T08:35:31;101572.0;;;25.96;48.56
62458;BME280;48509;52.122;5.250;2023-06-10T08:37:07;101572.0;;;26.04;47.87
62458;BME280;48509;52.122;5.250;2023-06-10T08:40:20;101574.0;;;25.99;48.31
62458;BME280;48509;52.122;5.250;2023-06-10T08:42:02;101573.0;;;26.13;46.63
62458;BME280;48509;52.122;5.250;2023-06-10T08:43:53;101572.0;;;26.22;46.92
62458;BME280;48509;52.122;5.250;2023-06-10T08:45:48;101569.0;;;26.31;46.88
62458;BME280;48509;52.122;5.250;2023-06-10T08:47:25;101572.0;;;26.25;47.04
62458;BME280;48509;52.122;5.250;2023-06-10T08:50:41;101568.0;;;26.34;46.99
62458;BME280;48509;52.122;5.250;2023-06-10T08:52:19;101570.0;;;26.44;45.46
62458;BME280;48509;52.122;5.250;2023-06-10T08:54:00;101569.0;;;26.51;45.96
62458;BME280;48509;52.122;5.250;2023-06-10T08:57:18;101568.0;;;26.58;45.44
62458;BME280;48509;52.122;5.250;2023-06-10T08:58:54;101569.0;;;26.67;44.75
62458;BME280;48509;52.122;5.250;2023-06-10T09:00:32;101573.0;;;26.63;45.03
62458;BME280;48509;52.122;5.250;2023-06-10T09:02:08;101578.0;;;26.65;44.8
62458;BME280;48509;52.122;5.250;2023-06-10T09:05:22;101573.0;;;26.77;44.44
62458;BME280;48509;52.122;5.250;2023-06-10T09:06:58;101575.0;;;26.84;44.97
62458;BME280;48509;52.122;5.250;2023-06-10T09:08:35;101574.0;;;26.86;44.57
62458;BME280;48509;52.122;5.250;2023-06-10T09:11:48;101578.0;;;26.95;44.97
62458;BME280;48509;52.122;5.250;2023-06-10T09:13:24;101577.0;;;27.04;44.4
62458;BME280;48509;52.122;5.250;2023-06-10T09:15:00;101574.0;;;27.13;44.28
62458;BME280;48509;52.122;5.250;2023-06-10T09:16:38;101575.0;;;27.17;44.02
62458;BME280;48509;52.122;5.250;2023-06-10T09:19:50;101571.0;;;27.23;43.74
62458;BME280;48509;52.122;5.250;2023-06-10T09:21:28;101570.0;;;27.33;43.08
62458;BME280;48509;52.122;5.250;2023-06-10T09:23:05;101566.0;;;27.48;43.56
62458;BME280;48509;52.122;5.250;2023-06-10T09:26:18;101570.0;;;27.49;43.16
62458;BME280;48509;52.122;5.250;2023-06-10T09:27:55;101572.0;;;27.54;41.34
62458;BME280;48509;52.122;5.250;2023-06-10T09:29:31;101568.0;;;27.51;42.61
62458;BME280;48509;52.122;5.250;2023-06-10T09:32:43;101571.0;;;27.64;41.75
62458;BME280;48509;52.122;5.250;2023-06-10T09:34:24;101561.0;;;27.65;41.44
62458;BME280;48509;52.122;5.250;2023-06-10T09:36:02;101564.0;;;27.76;41.92
62458;BME280;48509;52.122;5.250;2023-06-10T09:37:38;101563.0;;;27.85;41.49
62458;BME280;48509;52.122;5.250;2023-06-10T09:40:53;101567.0;;;27.93;41.8
62458;BME280;48509;52.122;5.250;2023-06-10T09:42:33;101571.0;;;27.97;39.78
62458;BME280;48509;52.122;5.250;2023-06-10T09:44:12;101568.0;;;28.02;39.06
62458;BME280;48509;52.122;5.250;2023-06-10T09:47:26;101568.0;;;28.11;38.35
62458;BME280;48509;52.122;5.250;2023-06-10T09:49:02;101566.0;;;28.19;37.67
62458;BME280;48509;52.122;5.250;2023-06-10T09:50:41;101566.0;;;28.13;38.46
62458;BME280;48509;52.122;5.250;2023-06-10T09:52:21;101565.0;;;28.28;39.85
62458;BME280;48509;52.122;5.250;2023-06-10T09:55:37;101563.0;;;28.26;39.14
62458;BME280;48509;52.122;5.250;2023-06-10T09:57:13;101566.0;;;28.31;38.92
62458;BME280;48509;52.122;5.250;2023-06-10T09:58:52;101564.0;;;28.39;39.78
62458;BME280;48509;52.122;5.250;2023-06-10T10:02:13;101563.0;;;28.24;40.76
62458;BME280;48509;52.122;5.250;2023-06-10T10:03:50;101562.0;;;28.39;40.51
62458;BME280;48509;52.122;5.250;2023-06-10T10:05:27;101561.0;;;28.54;39.25
62458;BME280;48509;52.122;5.250;2023-06-10T10:07:04;101562.0;;;28.63;39.89
62458;BME280;48509;52.122;5.250;2023-06-10T10:10:18;101562.0;;;28.61;38.61
62458;BME280;48509;52.122;5.250;2023-06-10T10:11:56;101560.0;;;28.81;37.99
62458;BME280;48509;52.122;5.250;2023-06-10T10:13:34;101555.0;;;28.94;37.15
62458;BME280;48509;52.122;5.250;2023-06-10T10:15:11;101553.0;;;28.95;35.85
62458;BME280;48509;52.122;5.250;2023-06-10T10:18:28;101551.0;;;28.99;36.54
62458;BME280;48509;52.122;5.250;2023-06-10T10:20:08;101556.0;;;29.06;37.87
62458;BME280;48509;52.122;5.250;2023-06-10T10:21:50;101549.0;;;29.04;37.19
62458;BME280;48509;52.122;5.250;2023-06-10T10:25:23;101552.0;;;28.97;37.71
62458;BME280;48509;52.122;5.250;2023-06-10T10:27:04;101553.0;;;29.1;36.35
62458;BME280;48509;52.122;5.250;2023-06-10T10:28:51;101549.0;;;29.14;35.85
62458;BME280;48509;52.122;5.250;2023-06-10T10:30:47;101550.0;;;29.16;35.35
62458;BME280;48509;52.122;5.250;2023-06-10T10:32:29;101543.0;;;29.28;36.17
62458;BME280;48509;52.122;5.250;2023-06-10T10:34:15;101543.0;;;29.4;36.43
62458;BME280;48509;52.122;5.250;2023-06-10T10:37:33;101542.0;;;29.52;36.11
62458;BME280;48509;52.122;5.250;2023-06-10T10:39:12;101545.0;;;29.49;34.81
62458;BME280;48509;52.122;5.250;2023-06-10T10:40:49;101545.0;;;29.51;32.89
62458;BME280;48509;52.122;5.250;2023-06-10T10:42:26;101537.0;;;29.61;32.79
62458;BME280;48509;52.122;5.250;2023-06-10T10:45:40;101540.0;;;29.62;34.71
62458;BME280;48509;52.122;5.250;2023-06-10T10:47:18;101539.0;;;29.62;33.25
62458;BME280;48509;52.122;5.250;2023-06-10T10:48:57;101541.0;;;29.75;34.42
62458;BME280;48509;52.122;5.250;2023-06-10T10:52:13;101535.0;;;29.83;34.05
62458;BME280;48509;52.122;5.250;2023-06-10T10:54:10;101543.0;;;29.91;33.22
62458;BME280;48509;52.122;5.250;2023-06-10T10:56:05;101528.0;;;29.91;32.87
62458;BME280;48509;52.122;5.250;2023-06-10T10:57:43;101536.0;;;29.91;31.82
62458;BME280;48509;52.122;5.250;2023-06-10T10:59:19;101541.0;;;29.91;31.8
62458;BME280;48509;52.122;5.250;2023-06-10T11:02:34;101533.0;;;30.01;33.1
62458;BME280;48509;52.122;5.250;2023-06-10T11:04:17;101532.0;;;30.02;33.07
62458;BME280;48509;52.122;5.250;2023-06-10T11:05:57;101531.0;;;30.16;32.92
62458;BME280;48509;52.122;5.250;2023-06-10T11:07:34;101528.0;;;30.21;31.73
62458;BME280;48509;52.122;5.250;2023-06-10T11:11:18;101524.0;;;30.17;33.1
62458;BME280;48509;52.122;5.250;2023-06-10T11:12:55;101524.0;;;30.13;31.96
62458;BME280;48509;52.122;5.250;2023-06-10T11:14:33;101528.0;;;30.25;32.21
62458;BME280;48509;52.122;5.250;2023-06-10T11:16:09;101522.0;;;30.21;32.24